Time;durP1;ratioP1;P1;durP2;ratioP2;P2;SDS_P1;SDS_P2;PMS_P1;PMS_P2;Temp;Humidity;BMP_temperature;BMP_pressure;BME280_temperature;BME280_humidity;BME280_pressure;Samples;Min_cycle;Max_cycle;Signal;HPM_P1;HPM_P2
2022/03/20 00:01:07;;;;;;;29.80;17.75;;;11.60;99.90;;;;;;5054390;28;20053;-77
2022/03/20 00:03:33;;;;;;;26.88;17.98;;;11.50;99.90;;;;;;5054291;28;20037;-76
2022/03/20 00:05:59;;;;;;;26.05;16.67;;;11.50;99.90;;;;;;5054118;28;20017;-76
2022/03/20 00:08:25;;;;;;;25.58;16.88;;;11.50;99.90;;;;;;5054457;28;20036;-76
2022/03/20 00:10:54;;;;;;;27.65;16.67;;;11.50;99.90;;;;;;5046188;28;20036;-76
2022/03/20 00:13:22;;;;;;;25.52;17.48;;;11.60;99.90;;;;;;5048631;28;20044;-77
2022/03/20 00:15:50;;;;;;;33.10;18.50;;;11.60;99.90;;;;;;5046699;28;20409;-76
2022/03/20 00:18:20;;;;;;;30.35;18.38;;;11.50;99.90;;;;;;5044344;28;20132;-77
2022/03/20 00:20:50;;;;;;;34.80;20.33;;;11.50;99.90;;;;;;5049838;28;20417;-77
2022/03/20 00:23:18;;;;;;;35.92;19.58;;;11.40;99.90;;;;;;5044880;28;20072;-76
2022/03/20 00:25:45;;;;;;;30.98;18.73;;;11.30;99.90;;;;;;5053015;28;20036;-77
2022/03/20 00:28:13;;;;;;;30.83;19.58;;;11.40;99.90;;;;;;5052927;28;20033;-77
2022/03/20 00:30:39;;;;;;;32.40;19.75;;;11.40;99.90;;;;;;5050596;28;20057;-77
2022/03/20 00:33:05;;;;;;;27.60;18.08;;;11.50;99.90;;;;;;5053644;28;20458;-77
2022/03/20 00:35:31;;;;;;;30.45;16.85;;;11.60;99.90;;;;;;5049529;28;21096;-77
2022/03/20 00:37:57;;;;;;;26.38;17.55;;;11.60;99.90;;;;;;5048931;28;20052;-77
2022/03/20 00:40:23;;;;;;;24.75;15.27;;;11.70;99.90;;;;;;5048545;28;20063;-77
2022/03/20 00:42:49;;;;;;;27.02;15.77;;;11.70;99.90;;;;;;5045880;28;20056;-77
2022/03/20 00:45:15;;;;;;;20.80;14.85;;;11.70;99.90;;;;;;5053454;28;20524;-76
2022/03/20 00:47:40;;;;;;;25.02;16.38;;;11.80;99.90;;;;;;5049674;28;20467;-78
2022/03/20 00:50:07;;;;;;;25.42;14.38;;;11.80;99.90;;;;;;5048110;28;20052;-79
2022/03/20 00:52:34;;;;;;;24.15;14.35;;;11.80;99.90;;;;;;5050605;28;20086;-79
2022/03/20 00:55:00;;;;;;;27.27;15.05;;;11.90;99.90;;;;;;5049566;28;20641;-79
2022/03/20 00:57:26;;;;;;;28.33;15.18;;;11.90;99.90;;;;;;5051930;28;20051;-79
2022/03/20 00:59:52;;;;;;;24.30;14.52;;;11.90;99.90;;;;;;5052112;28;20025;-79
2022/03/20 01:02:18;;;;;;;21.52;13.77;;;11.90;99.90;;;;;;5047878;28;20121;-79
2022/03/20 01:04:44;;;;;;;25.25;14.52;;;11.90;99.90;;;;;;5048706;28;20056;-78
2022/03/20 01:07:10;;;;;;;23.20;14.18;;;11.90;99.90;;;;;;5045789;28;20064;-79
2022/03/20 01:09:36;;;;;;;22.83;13.50;;;11.90;99.90;;;;;;5047245;28;20018;-79
2022/03/20 01:12:03;;;;;;;22.85;14.77;;;12.00;99.90;;;;;;5047159;28;20025;-79
2022/03/20 01:14:30;;;;;;;22.38;13.93;;;12.00;99.90;;;;;;5045312;28;20030;-79
2022/03/20 01:16:56;;;;;;;23.65;13.85;;;12.00;99.90;;;;;;5046214;28;20033;-78
2022/03/20 01:19:23;;;;;;;25.42;14.00;;;12.00;99.90;;;;;;5046534;28;20382;-79
2022/03/20 01:21:49;;;;;;;23.90;14.48;;;12.00;99.90;;;;;;5045504;28;20466;-79
2022/03/20 01:24:15;;;;;;;23.60;13.65;;;11.90;99.90;;;;;;5049922;28;20056;-78
2022/03/20 01:26:41;;;;;;;23.00;13.63;;;11.90;99.90;;;;;;5045657;28;20052;-78
2022/03/20 01:29:07;;;;;;;25.52;14.32;;;11.90;99.90;;;;;;5044766;28;20025;-79
2022/03/20 01:31:34;;;;;;;28.67;15.52;;;11.90;99.90;;;;;;5048278;28;20029;-79
2022/03/20 01:34:00;;;;;;;23.08;13.80;;;11.90;99.90;;;;;;5046213;28;20028;-78
2022/03/20 01:36:28;;;;;;;28.08;15.05;;;11.90;99.90;;;;;;5049242;28;20021;-79
2022/03/20 01:38:54;;;;;;;23.27;13.77;;;11.90;99.90;;;;;;5048075;28;20044;-78
2022/03/20 01:41:21;;;;;;;25.02;14.73;;;11.90;99.90;;;;;;5043596;28;20512;-78
2022/03/20 01:43:54;;;;;;;22.65;14.25;;;11.90;99.90;;;;;;5047048;28;20051;-78
2022/03/20 01:46:21;;;;;;;26.05;14.85;;;11.90;99.90;;;;;;5044590;28;20020;-79
2022/03/20 01:48:47;;;;;;;22.40;14.52;;;11.90;99.90;;;;;;5048205;28;20025;-79
2022/03/20 01:51:13;;;;;;;24.90;15.98;;;11.90;99.90;;;;;;5052043;28;20079;-79
2022/03/20 01:53:39;;;;;;;26.95;16.90;;;11.90;99.90;;;;;;5046970;28;20046;-78
2022/03/20 01:56:06;;;;;;;30.13;17.38;;;11.80;99.90;;;;;;5046024;28;20025;-79
2022/03/20 01:58:33;;;;;;;25.88;17.83;;;11.70;99.90;;;;;;5046518;28;20033;-79
2022/03/20 02:01:00;;;;;;;26.15;17.35;;;11.60;99.90;;;;;;5046191;28;20056;-79
2022/03/20 02:03:26;;;;;;;29.17;18.50;;;11.50;99.90;;;;;;5051092;28;20025;-79
2022/03/20 02:05:52;;;;;;;28.13;18.45;;;11.40;99.90;;;;;;5048196;28;20028;-79
2022/03/20 02:08:25;;;;;;;28.08;19.55;;;11.50;99.90;;;;;;5045795;28;20028;-79
2022/03/20 02:10:55;;;;;;;28.17;19.30;;;11.50;99.90;;;;;;5047565;28;20465;-78
2022/03/20 02:13:22;;;;;;;30.10;20.88;;;11.40;99.90;;;;;;5047896;28;20033;-78
2022/03/20 02:15:50;;;;;;;31.98;20.00;;;11.40;99.90;;;;;;5047259;28;20037;-77
2022/03/20 02:18:16;;;;;;;30.17;20.08;;;11.30;99.90;;;;;;5052170;28;20497;-79
2022/03/20 02:20:48;;;;;;;32.45;19.63;;;11.20;99.90;;;;;;5044683;28;20024;-78
2022/03/20 02:23:17;;;;;;;27.98;19.20;;;11.30;99.90;;;;;;5047920;28;20489;-78
2022/03/20 02:25:51;;;;;;;29.65;19.60;;;11.30;99.90;;;;;;5046035;28;20470;-78
2022/03/20 02:28:18;;;;;;;28.90;19.48;;;11.30;99.90;;;;;;5044044;28;20025;-78
2022/03/20 02:30:46;;;;;;;32.17;20.15;;;11.30;99.90;;;;;;5047364;28;20417;-78
2022/03/20 02:33:12;;;;;;;31.60;19.08;;;11.30;99.90;;;;;;5048832;28;20109;-78
2022/03/20 02:35:39;;;;;;;30.10;18.85;;;11.30;99.90;;;;;;5043641;28;20021;-78
2022/03/20 02:38:10;;;;;;;32.08;19.50;;;11.30;99.90;;;;;;5044429;28;20186;-78
2022/03/20 02:40:36;;;;;;;27.83;18.80;;;11.30;99.90;;;;;;5051725;28;20025;-78
2022/03/20 02:43:05;;;;;;;26.30;19.08;;;11.40;99.90;;;;;;5045404;28;20029;-78
2022/03/20 02:45:31;;;;;;;28.40;20.17;;;11.40;99.90;;;;;;5047782;28;20017;-78
2022/03/20 02:48:00;;;;;;;28.20;18.45;;;11.40;99.90;;;;;;5047752;28;20024;-78
2022/03/20 02:50:32;;;;;;;30.15;19.75;;;11.30;99.90;;;;;;5043697;28;20028;-77
2022/03/20 02:53:03;;;;;;;27.30;18.50;;;11.20;99.90;;;;;;5043078;28;20017;-78
2022/03/20 02:55:30;;;;;;;27.30;18.45;;;11.30;99.90;;;;;;5046912;28;20030;-78
2022/03/20 02:57:58;;;;;;;30.05;19.25;;;11.40;99.90;;;;;;5048854;28;20033;-78
2022/03/20 03:00:28;;;;;;;28.35;18.88;;;11.40;99.90;;;;;;5042953;28;20033;-78
2022/03/20 03:02:56;;;;;;;28.50;19.48;;;11.40;99.90;;;;;;5043449;28;20378;-77
2022/03/20 03:05:25;;;;;;;27.17;18.88;;;11.40;99.90;;;;;;5042772;28;20032;-78
2022/03/20 03:13:36;;;;;;;32.65;19.33;;;11.40;99.90;;;;;;5048464;28;20087;-79
2022/03/20 03:16:06;;;;;;;28.63;19.02;;;11.40;99.90;;;;;;5048838;28;20029;-78
2022/03/20 03:18:33;;;;;;;30.30;19.27;;;11.40;99.90;;;;;;5044958;28;20033;-77
2022/03/20 03:21:00;;;;;;;28.02;18.55;;;11.30;99.90;;;;;;5051300;28;20403;-78
2022/03/20 03:23:26;;;;;;;30.13;18.77;;;11.30;99.90;;;;;;5048400;28;20124;-78
2022/03/20 03:25:53;;;;;;;25.38;17.83;;;11.40;99.90;;;;;;5047265;28;20037;-78
2022/03/20 03:28:19;;;;;;;26.90;18.23;;;11.30;99.90;;;;;;5048808;28;20091;-77
2022/03/20 03:30:47;;;;;;;32.17;18.33;;;11.40;99.90;;;;;;5052378;28;20033;-77
2022/03/20 03:33:16;;;;;;;25.75;17.55;;;11.40;99.90;;;;;;5052406;28;20037;-78
2022/03/20 03:35:42;;;;;;;29.88;17.75;;;11.40;99.90;;;;;;5049343;28;20497;-77
2022/03/20 03:38:14;;;;;;;26.20;16.60;;;11.50;99.90;;;;;;5042711;28;20030;-78
2022/03/20 03:40:41;;;;;;;21.17;15.75;;;11.50;99.90;;;;;;5049078;28;20100;-78
2022/03/20 03:43:07;;;;;;;25.17;16.95;;;11.60;99.90;;;;;;5047588;28;20478;-77
2022/03/20 03:45:34;;;;;;;24.77;15.23;;;11.60;99.90;;;;;;5052484;28;20035;-77
2022/03/20 03:48:00;;;;;;;27.05;15.77;;;11.70;99.90;;;;;;5050137;28;20028;-77
2022/03/20 03:50:29;;;;;;;24.75;14.90;;;11.60;99.90;;;;;;5047182;28;20037;-77
2022/03/20 03:52:55;;;;;;;25.27;15.10;;;11.60;99.90;;;;;;5044572;28;20112;-77
2022/03/20 03:55:21;;;;;;;25.45;15.15;;;11.60;99.90;;;;;;5047181;28;20557;-78
2022/03/20 03:57:48;;;;;;;24.23;16.13;;;11.60;99.90;;;;;;5049929;28;20513;-78
2022/03/20 04:00:16;;;;;;;24.38;14.93;;;11.60;99.90;;;;;;5051437;28;20033;-78
2022/03/20 04:02:42;;;;;;;23.25;15.40;;;11.70;99.90;;;;;;5055249;28;20063;-77
2022/03/20 04:05:09;;;;;;;23.85;14.82;;;11.70;99.90;;;;;;5046050;28;20497;-77
2022/03/20 04:07:37;;;;;;;23.45;14.68;;;11.70;99.90;;;;;;5047872;28;20032;-77
2022/03/20 04:10:05;;;;;;;23.90;15.45;;;11.70;99.90;;;;;;5047851;28;20030;-77
2022/03/20 04:12:33;;;;;;;22.48;16.00;;;11.70;99.90;;;;;;5052291;28;20029;-77
2022/03/20 04:15:02;;;;;;;23.45;14.57;;;11.60;99.90;;;;;;5050473;28;20025;-77
2022/03/20 04:17:29;;;;;;;19.02;14.00;;;11.70;99.90;;;;;;5044517;28;20033;-77
2022/03/20 04:19:56;;;;;;;22.10;14.02;;;11.70;99.90;;;;;;5046759;28;20044;-77
2022/03/20 04:22:22;;;;;;;23.40;13.60;;;11.70;99.90;;;;;;5045068;28;20036;-77
2022/03/20 04:24:50;;;;;;;24.42;14.35;;;11.80;99.90;;;;;;5049800;28;20025;-77
2022/03/20 04:27:16;;;;;;;22.67;13.95;;;11.80;99.90;;;;;;5050322;28;20032;-77
2022/03/20 04:29:41;;;;;;;24.15;14.95;;;11.80;99.90;;;;;;5046108;28;20029;-77
2022/03/20 04:32:08;;;;;;;22.45;14.68;;;11.80;99.90;;;;;;5045175;28;20367;-77
2022/03/20 04:34:35;;;;;;;22.40;14.23;;;11.80;99.90;;;;;;5045651;28;20075;-77
2022/03/20 04:37:04;;;;;;;22.20;13.88;;;11.80;99.90;;;;;;5048479;28;20123;-77
2022/03/20 04:39:30;;;;;;;20.60;13.52;;;11.80;99.90;;;;;;5050298;28;20060;-77
2022/03/20 04:41:56;;;;;;;20.30;14.02;;;11.80;99.90;;;;;;5047144;28;20051;-77
2022/03/20 04:44:22;;;;;;;22.67;14.40;;;11.80;99.90;;;;;;5045992;28;20076;-77
2022/03/20 04:46:48;;;;;;;22.20;14.40;;;11.90;99.90;;;;;;5049574;28;20021;-77
2022/03/20 05:00:25;;;;;;;23.10;15.93;;;11.80;99.90;;;;;;5032625;28;20072;-78
2022/03/20 05:02:50;;;;;;;20.90;14.88;;;11.80;99.90;;;;;;5032901;28;20571;-77
2022/03/20 05:05:17;;;;;;;25.85;15.52;;;11.80;99.90;;;;;;5030502;28;20045;-77
2022/03/20 05:07:43;;;;;;;26.35;18.40;;;11.70;99.90;;;;;;5032663;28;20057;-77
2022/03/20 05:15:42;;;;;;;28.75;19.88;;;11.20;99.90;;;;;;5032758;28;20622;-78
2022/03/20 05:18:08;;;;;;;30.30;20.65;;;11.20;99.90;;;;;;5032834;28;20453;-77
2022/03/20 05:20:34;;;;;;;30.63;20.35;;;11.10;99.90;;;;;;5031168;28;20038;-77
2022/03/20 05:23:00;;;;;;;30.40;20.35;;;11.10;99.90;;;;;;5031133;28;20028;-77
2022/03/20 05:25:28;;;;;;;30.88;22.27;;;11.10;99.90;;;;;;5032243;28;20375;-77
2022/03/20 05:27:57;;;;;;;36.20;22.23;;;11.10;99.90;;;;;;5032573;28;20036;-77
2022/03/20 05:30:24;;;;;;;31.10;21.02;;;11.20;99.90;;;;;;5032362;28;20445;-78
2022/03/20 05:32:50;;;;;;;29.20;21.60;;;11.20;99.90;;;;;;5026449;28;20116;-78
2022/03/20 05:35:16;;;;;;;27.67;19.40;;;11.20;99.90;;;;;;5025967;28;20050;-77
2022/03/20 05:37:43;;;;;;;27.90;19.80;;;11.30;99.90;;;;;;5032233;28;20034;-77
2022/03/20 05:40:10;;;;;;;29.25;20.48;;;11.30;99.90;;;;;;5030772;28;20139;-77
2022/03/20 05:42:36;;;;;;;24.35;18.88;;;11.40;99.90;;;;;;5028323;28;20438;-77
2022/03/20 05:45:04;;;;;;;23.35;16.83;;;11.40;99.90;;;;;;5028661;28;20017;-78
2022/03/20 05:47:33;;;;;;;24.13;17.38;;;11.40;99.90;;;;;;5026526;28;20542;-78
2022/03/20 05:50:01;;;;;;;26.02;17.98;;;11.40;99.90;;;;;;5029020;28;20076;-77
2022/03/20 05:52:29;;;;;;;29.85;20.20;;;11.40;99.90;;;;;;5032775;28;20032;-77
2022/03/20 05:54:55;;;;;;;30.17;21.85;;;11.20;99.90;;;;;;5026855;28;20037;-78
2022/03/20 06:00:05;;;;;;;;;;;11.00;99.90;;;;;;5033339;28;20529;-78
2022/03/20 06:02:31;;;;;;;29.25;20.60;;;11.10;99.90;;;;;;5050308;28;19920;-78
2022/03/20 06:04:57;;;;;;;27.73;20.48;;;10.90;99.90;;;;;;5051611;28;20108;-78
2022/03/20 06:07:22;;;;;;;27.55;21.17;;;10.90;99.90;;;;;;5051573;28;20048;-78
2022/03/20 06:09:48;;;;;;;28.38;20.00;;;11.00;99.90;;;;;;5052201;28;20032;-78
2022/03/20 06:12:14;;;;;;;29.50;19.58;;;11.00;99.90;;;;;;5052108;28;20033;-79
2022/03/20 06:14:40;;;;;;;32.47;20.90;;;11.00;99.90;;;;;;5052266;28;20107;-78
2022/03/20 06:17:06;;;;;;;27.25;18.98;;;10.90;99.90;;;;;;5051899;28;20370;-78
2022/03/20 06:19:33;;;;;;;29.98;20.73;;;11.00;99.90;;;;;;5052133;28;20520;-78
2022/03/20 06:21:59;;;;;;;27.45;18.60;;;10.90;99.90;;;;;;5051683;28;20029;-77
2022/03/20 06:24:25;;;;;;;26.88;18.83;;;11.00;99.90;;;;;;5052243;28;20043;-78
2022/03/20 06:26:50;;;;;;;28.70;18.70;;;11.00;99.90;;;;;;5052255;28;20382;-78
2022/03/20 06:29:16;;;;;;;26.15;18.65;;;11.10;99.90;;;;;;5051600;28;20482;-78
2022/03/20 06:31:42;;;;;;;32.08;19.45;;;11.10;99.90;;;;;;5052208;28;20040;-78
2022/03/20 06:34:08;;;;;;;26.13;20.33;;;11.20;99.90;;;;;;5051489;28;20017;-77
2022/03/20 06:36:35;;;;;;;34.33;20.73;;;11.20;99.90;;;;;;5051531;28;20040;-77
2022/03/20 06:39:01;;;;;;;27.83;20.40;;;11.20;99.90;;;;;;5051996;28;20505;-77
2022/03/20 06:41:27;;;;;;;27.13;18.48;;;11.20;99.90;;;;;;5052818;28;20150;-77
2022/03/20 06:43:53;;;;;;;28.67;17.48;;;11.20;99.90;;;;;;5051675;28;20048;-78
2022/03/20 06:46:20;;;;;;;27.63;19.05;;;11.20;99.90;;;;;;5055516;28;20537;-78
2022/03/20 06:48:46;;;;;;;27.35;18.73;;;11.20;99.90;;;;;;5055952;28;20063;-78
2022/03/20 06:51:12;;;;;;;30.23;19.23;;;11.10;99.90;;;;;;5056259;28;20389;-78
2022/03/20 06:53:38;;;;;;;32.25;20.45;;;11.20;99.90;;;;;;5055742;28;20111;-77
2022/03/20 06:56:04;;;;;;;32.35;20.10;;;11.10;99.90;;;;;;5055286;28;20029;-78
2022/03/20 06:58:29;;;;;;;25.23;19.25;;;11.10;99.90;;;;;;5056173;28;20448;-78
2022/03/20 07:00:55;;;;;;;26.80;18.90;;;11.00;99.90;;;;;;5055510;28;20033;-77
2022/03/20 07:03:21;;;;;;;26.05;18.25;;;11.00;99.90;;;;;;5056111;28;20523;-78
2022/03/20 07:05:47;;;;;;;26.25;18.33;;;11.00;99.90;;;;;;5055202;28;20040;-78
2022/03/20 07:08:13;;;;;;;26.58;18.98;;;11.00;99.90;;;;;;5054987;28;20082;-78
2022/03/20 07:10:39;;;;;;;27.35;18.05;;;11.00;99.90;;;;;;5055698;28;20040;-77
2022/03/20 07:15:52;;;;;;;26.98;18.35;;;11.10;99.90;;;;;;5055266;28;20089;-77
2022/03/20 07:18:20;;;;;;;28.92;18.85;;;11.00;99.90;;;;;;5055624;28;20036;-78
2022/03/20 07:20:47;;;;;;;27.80;19.02;;;11.00;99.90;;;;;;5055810;28;20029;-77
2022/03/20 07:23:13;;;;;;;28.35;19.10;;;11.00;99.90;;;;;;5054793;28;20501;-77
2022/03/20 07:31:10;;;;;;;29.45;19.38;;;11.10;99.90;;;;;;5052467;28;20042;-77
2022/03/20 07:33:36;;;;;;;29.13;20.38;;;11.10;99.90;;;;;;5067368;28;20034;-78
2022/03/20 07:36:04;;;;;;;29.95;21.00;;;11.20;99.90;;;;;;5054849;28;20112;-77
2022/03/20 07:38:30;;;;;;;30.27;22.00;;;11.20;99.90;;;;;;5055070;28;20029;-77
2022/03/20 07:40:56;;;;;;;30.67;21.50;;;11.30;99.90;;;;;;5054126;28;20428;-78
2022/03/20 07:43:22;;;;;;;30.60;20.48;;;11.40;99.90;;;;;;5055102;28;20056;-78
2022/03/20 07:45:47;;;;;;;27.83;21.08;;;11.50;99.90;;;;;;5055184;28;20028;-78
2022/03/20 07:48:13;;;;;;;29.50;20.70;;;11.50;99.90;;;;;;5054981;28;20029;-77
2022/03/20 07:50:40;;;;;;;27.98;21.95;;;11.50;99.90;;;;;;5054536;28;20029;-77
2022/03/20 07:53:07;;;;;;;32.30;20.30;;;11.60;99.90;;;;;;5049820;28;20037;-78
2022/03/20 07:55:34;;;;;;;30.42;20.95;;;11.70;99.90;;;;;;5050798;28;20021;-78
2022/03/20 07:58:04;;;;;;;31.48;22.13;;;11.70;99.90;;;;;;5051017;28;20084;-77
2022/03/20 08:00:30;;;;;;;32.08;22.58;;;11.80;99.90;;;;;;5054066;28;20029;-78
2022/03/20 08:02:55;;;;;;;31.83;22.05;;;11.80;99.90;;;;;;5049756;28;20060;-77
2022/03/20 08:05:23;;;;;;;33.42;22.65;;;11.90;99.90;;;;;;5045932;28;20104;-78
2022/03/20 08:07:49;;;;;;;33.20;19.27;;;12.00;99.90;;;;;;5049806;28;20029;-78
2022/03/20 08:10:14;;;;;;;33.42;19.23;;;12.00;99.90;;;;;;5048742;28;20041;-78
2022/03/20 08:12:40;;;;;;;29.80;17.30;;;12.10;99.90;;;;;;5047741;28;20064;-78
2022/03/20 08:15:07;;;;;;;29.52;17.40;;;12.10;99.90;;;;;;5048587;28;20493;-78
2022/03/20 08:17:42;;;;;;;26.95;15.27;;;12.20;99.90;;;;;;5046146;28;20031;-77
2022/03/20 08:20:09;;;;;;;28.63;16.02;;;12.20;99.90;;;;;;5046778;28;20112;-77
2022/03/20 08:22:35;;;;;;;29.67;15.35;;;12.30;99.90;;;;;;5050786;28;20079;-80
2022/03/20 08:25:01;;;;;;;25.02;15.40;;;12.20;99.90;;;;;;5046230;28;20491;-78
2022/03/20 08:27:28;;;;;;;30.17;16.98;;;12.20;99.90;;;;;;5049802;28;20059;-78
2022/03/20 08:29:55;;;;;;;27.92;15.32;;;12.20;99.90;;;;;;5047995;28;20025;-78
2022/03/20 08:32:22;;;;;;;29.15;16.55;;;12.30;99.90;;;;;;5045264;28;20025;-78
2022/03/20 08:34:48;;;;;;;29.48;16.05;;;12.30;99.90;;;;;;5049184;28;20025;-78
2022/03/20 08:37:14;;;;;;;25.92;15.95;;;12.40;99.90;;;;;;5046065;28;20099;-78
2022/03/20 08:39:40;;;;;;;26.90;15.98;;;12.40;99.90;;;;;;5050697;28;20057;-78
2022/03/20 08:42:07;;;;;;;24.40;16.15;;;12.50;99.90;;;;;;5054463;28;20040;-73
2022/03/20 08:44:32;;;;;;;26.15;15.43;;;12.60;99.90;;;;;;5048823;28;20028;-73
2022/03/20 08:46:58;;;;;;;29.35;16.15;;;12.50;99.90;;;;;;5048517;28;20474;-73
2022/03/20 08:49:24;;;;;;;26.67;16.23;;;12.50;99.90;;;;;;5048556;28;20036;-73
2022/03/20 08:51:50;;;;;;;22.73;14.15;;;12.50;99.90;;;;;;5046291;28;20029;-74
2022/03/20 08:54:16;;;;;;;22.38;14.65;;;12.50;99.90;;;;;;5050424;28;20032;-75
2022/03/20 08:56:42;;;;;;;26.52;14.60;;;12.60;99.90;;;;;;5045817;28;20501;-75
2022/03/20 08:59:07;;;;;;;26.00;15.88;;;12.80;99.90;;;;;;5045966;28;20052;-75
2022/03/20 09:01:33;;;;;;;28.45;15.95;;;12.80;99.90;;;;;;5047199;28;20428;-75
2022/03/20 09:04:00;;;;;;;28.15;16.95;;;12.90;99.90;;;;;;5044722;28;20036;-75
2022/03/20 09:06:26;;;;;;;31.58;18.38;;;13.00;99.90;;;;;;5049480;28;20035;-75
2022/03/20 09:08:53;;;;;;;31.10;18.50;;;13.10;99.90;;;;;;5047097;28;20480;-75
2022/03/20 09:11:20;;;;;;;26.08;17.70;;;13.10;99.90;;;;;;5044563;28;20029;-75
2022/03/20 09:13:46;;;;;;;27.63;16.88;;;13.20;99.90;;;;;;5048348;28;20021;-74
2022/03/20 09:19:00;;;;;;;33.53;22.88;;;13.20;99.90;;;;;;5046478;28;20121;-75
2022/03/20 09:21:27;;;;;;;31.33;23.95;;;13.20;99.90;;;;;;5050935;28;20035;-76
2022/03/20 09:23:53;;;;;;;32.97;23.17;;;13.20;99.90;;;;;;5047118;28;20029;-80
2022/03/20 09:26:19;;;;;;;31.02;22.60;;;13.20;99.90;;;;;;5044200;28;20033;-75
2022/03/20 09:28:46;;;;;;;31.30;21.85;;;13.20;99.90;;;;;;5047012;28;20029;-75
2022/03/20 09:31:13;;;;;;;33.97;22.80;;;13.20;99.90;;;;;;5046522;28;20033;-75
2022/03/20 09:33:40;;;;;;;25.98;19.52;;;13.30;99.90;;;;;;5049840;28;20052;-75
2022/03/20 09:36:06;;;;;;;33.25;22.30;;;13.30;99.90;;;;;;5049425;28;20036;-75
2022/03/20 09:38:33;;;;;;;26.65;19.65;;;13.30;99.90;;;;;;5045043;28;20026;-75
2022/03/20 09:41:03;;;;;;;29.58;19.75;;;13.40;99.90;;;;;;5046158;28;20021;-75
2022/03/20 09:43:31;;;;;;;23.20;19.02;;;13.30;99.90;;;;;;5045069;28;20536;-75
2022/03/20 09:45:58;;;;;;;24.88;18.70;;;13.30;99.90;;;;;;5044952;28;20036;-75
2022/03/20 09:48:27;;;;;;;25.70;18.38;;;13.30;99.90;;;;;;5052200;28;20417;-75
2022/03/20 09:50:53;;;;;;;26.88;19.13;;;13.20;99.90;;;;;;5046141;28;20054;-75
2022/03/20 09:53:20;;;;;;;25.55;17.60;;;13.10;99.90;;;;;;5040913;28;20037;-75
2022/03/20 09:55:46;;;;;;;21.98;16.48;;;13.00;99.90;;;;;;5046613;28;20490;-75
2022/03/20 09:58:11;;;;;;;25.05;18.40;;;13.00;99.90;;;;;;5050362;28;20063;-75
2022/03/20 10:00:37;;;;;;;24.48;15.88;;;13.00;99.90;;;;;;5045717;28;20104;-75
2022/03/20 10:03:23;;;;;;;23.33;16.83;;;13.00;99.90;;;;;;5045008;28;20294;-75
2022/03/20 10:06:05;;;;;;;25.95;16.73;;;13.00;99.90;;;;;;5040029;28;20037;-75
2022/03/20 10:08:31;;;;;;;26.67;17.23;;;13.00;99.90;;;;;;5045448;28;20025;-75
2022/03/20 10:11:16;;;;;;;25.00;18.23;;;13.00;99.90;;;;;;5046761;28;20090;-75
2022/03/20 10:14:24;;;;;;;26.38;18.10;;;13.00;99.90;;;;;;5046318;28;20052;-75
2022/03/20 10:17:17;;;;;;;27.55;19.05;;;13.00;99.90;;;;;;5043255;28;20040;-75
2022/03/20 10:19:43;;;;;;;27.67;18.85;;;13.00;99.90;;;;;;5045533;28;20037;-75
2022/03/20 10:22:12;;;;;;;26.10;17.52;;;13.10;99.90;;;;;;5042885;28;20059;-75
2022/03/20 10:24:48;;;;;;;23.75;17.20;;;13.10;99.90;;;;;;5042327;28;20033;-75
2022/03/20 10:27:14;;;;;;;25.15;17.52;;;13.10;99.90;;;;;;5035718;28;20025;-75
2022/03/20 10:30:07;;;;;;;27.50;16.90;;;13.20;99.90;;;;;;5044455;28;20021;-75
2022/03/20 10:32:33;;;;;;;23.88;16.40;;;13.20;99.90;;;;;;5042355;28;20034;-75
2022/03/20 10:35:01;;;;;;;24.85;16.80;;;13.10;99.90;;;;;;5046330;28;20041;-75
2022/03/20 10:37:44;;;;;;;26.02;16.30;;;13.10;99.90;;;;;;5045033;28;20049;-75
2022/03/20 10:40:15;;;;;;;25.55;17.08;;;13.20;99.90;;;;;;5043810;28;20025;-75
2022/03/20 10:43:06;;;;;;;28.20;17.65;;;13.20;99.90;;;;;;5044580;28;20036;-74
2022/03/20 10:46:06;;;;;;;25.10;17.42;;;13.30;99.90;;;;;;5044110;28;20069;-77
2022/03/20 10:48:36;;;;;;;25.08;17.85;;;13.30;99.90;;;;;;5044270;28;20032;-76
2022/03/20 10:51:03;;;;;;;26.80;17.58;;;13.30;99.90;;;;;;5043282;28;20049;-76
2022/03/20 10:53:29;;;;;;;27.23;20.38;;;13.40;99.90;;;;;;5045449;28;20024;-76
2022/03/20 10:56:09;;;;;;;26.67;18.73;;;13.40;99.90;;;;;;5044451;28;20021;-75
2022/03/20 10:58:39;;;;;;;25.38;18.92;;;13.50;99.90;;;;;;5044198;28;20090;-74
2022/03/20 11:01:07;;;;;;;26.80;19.23;;;13.60;99.90;;;;;;5042655;28;20792;-76
2022/03/20 11:03:36;;;;;;;30.50;19.23;;;13.60;99.90;;;;;;5037329;28;20075;-77
2022/03/20 11:06:09;;;;;;;23.77;17.50;;;13.80;99.90;;;;;;5046857;28;20044;-77
2022/03/20 11:08:37;;;;;;;26.77;19.40;;;13.80;99.90;;;;;;5048883;28;20425;-75
2022/03/20 11:11:03;;;;;;;26.15;18.40;;;13.90;99.90;;;;;;5048692;28;20020;-82
2022/03/20 11:13:32;;;;;;;24.88;18.63;;;14.00;99.90;;;;;;5046009;28;20029;-79
2022/03/20 11:15:59;;;;;;;27.08;17.98;;;14.00;99.90;;;;;;5046609;28;20430;-78
2022/03/20 11:18:28;;;;;;;25.63;18.15;;;14.10;99.90;;;;;;5049785;28;20037;-78
2022/03/20 11:20:55;;;;;;;27.15;17.52;;;14.10;99.90;;;;;;5051221;28;20040;-76
2022/03/20 11:23:24;;;;;;;25.00;17.52;;;14.20;99.90;;;;;;5042329;28;20022;-75
2022/03/20 11:25:52;;;;;;;23.00;16.92;;;14.20;99.90;;;;;;5042220;28;20021;-76
2022/03/20 11:28:21;;;;;;;28.17;18.77;;;14.20;99.90;;;;;;5052758;28;20037;-76
2022/03/20 11:30:48;;;;;;;26.38;18.90;;;14.30;99.90;;;;;;5048357;28;20013;-77
2022/03/20 11:33:14;;;;;;;25.38;18.75;;;14.30;99.90;;;;;;5047464;28;20048;-76
2022/03/20 11:35:40;;;;;;;25.95;18.52;;;14.30;99.90;;;;;;5047116;28;20077;-75
2022/03/20 11:38:25;;;;;;;28.80;20.02;;;14.40;99.90;;;;;;5047974;28;20041;-79
2022/03/20 11:41:10;;;;;;;25.33;19.63;;;14.40;99.90;;;;;;5050402;28;20029;-77
2022/03/20 11:43:43;;;;;;;30.00;18.55;;;14.40;99.90;;;;;;5053194;28;20099;-78
2022/03/20 11:46:29;;;;;;;25.88;19.17;;;14.50;99.90;;;;;;5044975;28;20029;-86
2022/03/20 11:49:13;;;;;;;25.80;18.48;;;14.40;99.90;;;;;;5044794;28;20033;-75
2022/03/20 11:51:55;;;;;;;;;;;14.50;99.90;;;;;;5053332;28;20045;-77
2022/03/20 11:54:27;;;;;;;18.33;12.75;;;14.60;99.90;;;;;;5050861;28;19909;-78
2022/03/20 11:56:54;;;;;;;25.17;13.77;;;14.60;99.90;;;;;;5047149;28;20009;-77
2022/03/20 11:59:47;;;;;;;22.73;13.75;;;14.50;99.90;;;;;;5045641;28;20542;-78
2022/03/20 12:02:15;;;;;;;21.65;12.88;;;14.30;99.90;;;;;;5048749;28;20506;-78
2022/03/20 12:05:10;;;;;;;23.83;12.82;;;14.20;99.90;;;;;;5045287;28;20029;-77
2022/03/20 12:08:09;;;;;;;18.80;12.43;;;14.30;99.90;;;;;;5031139;28;20227;-78
2022/03/20 12:10:46;;;;;;;24.45;13.57;;;14.50;99.90;;;;;;5027657;28;20537;-76
2022/03/20 12:13:27;;;;;;;21.88;12.95;;;14.50;99.90;;;;;;5032874;28;20041;-76
2022/03/20 12:15:55;;;;;;;24.75;13.20;;;14.60;99.90;;;;;;5020262;28;20033;-76
2022/03/20 12:18:20;;;;;;;23.13;13.70;;;14.60;99.90;;;;;;5028309;28;20041;-78
2022/03/20 12:20:49;;;;;;;24.88;13.55;;;14.60;99.90;;;;;;5031939;28;20063;-78
2022/03/20 12:23:29;;;;;;;23.30;12.18;;;14.40;99.90;;;;;;5029785;28;20504;-79
2022/03/20 12:25:56;;;;;;;21.73;12.80;;;14.20;99.90;;;;;;5030963;28;20063;-76
2022/03/20 12:28:31;;;;;;;20.70;12.35;;;14.20;99.90;;;;;;5033194;28;20597;-77
2022/03/20 12:30:57;;;;;;;25.63;12.63;;;14.30;99.90;;;;;;5026552;28;20525;-76
2022/03/20 12:33:25;;;;;;;26.80;14.35;;;14.20;99.90;;;;;;5031812;28;20445;-78
2022/03/20 12:35:52;;;;;;;23.70;14.55;;;14.30;99.90;;;;;;5024734;28;20037;-78
2022/03/20 12:38:40;;;;;;;18.27;12.25;;;14.30;99.90;;;;;;5029421;28;20050;-77
2022/03/20 12:41:14;;;;;;;24.42;11.95;;;14.10;99.90;;;;;;5031790;28;20037;-78
2022/03/20 12:43:40;;;;;;;;;;;14.10;99.90;;;;;;5036461;28;20037;-77
2022/03/20 12:46:08;;;;;;;24.30;11.80;;;14.10;99.90;;;;;;5049713;28;19959;-77
2022/03/20 12:48:35;;;;;;;22.25;11.70;;;14.10;99.90;;;;;;5052093;28;20394;-78
2022/03/20 12:51:11;;;;;;;24.63;11.55;;;14.00;99.90;;;;;;5048094;28;20027;-78
2022/03/20 12:53:41;;;;;;;25.42;12.85;;;14.00;99.90;;;;;;5045520;28;20828;-74
2022/03/20 12:56:28;;;;;;;25.48;12.82;;;14.00;99.90;;;;;;5043690;28;20033;-75
2022/03/20 12:58:53;;;;;;;25.10;11.93;;;13.80;99.90;;;;;;5043325;28;20080;-76
2022/03/20 13:01:19;;;;;;;27.10;11.80;;;13.80;99.90;;;;;;5054896;28;20521;-83
2022/03/20 13:03:45;;;;;;;23.85;12.07;;;13.70;99.90;;;;;;5055067;28;20059;-74
2022/03/20 13:06:11;;;;;;;20.13;12.63;;;13.70;99.90;;;;;;5046198;28;20100;-74
2022/03/20 13:08:38;;;;;;;23.95;12.63;;;13.70;99.90;;;;;;5044274;28;20039;-74
2022/03/20 13:11:48;;;;;;;23.23;12.38;;;13.80;99.90;;;;;;5044238;28;20028;-74